MSC Regina — 3FGF9 — position and weather

sailwx.info

Track history (hours):
 
Tides and Currents Weather Stations Pressure Air Temp Water Temp Dewpoint Dewpoint Depression Visibility Wind Speed Wind Dir Waves Ship Positions

MSC Regina

Last reported at 2016-May-03 00:33 UTC. Time now 2016-May-03 01:10 UTC.
Position N 37°38' W 008°59'.

Length 259 m; draft 10.3 m.

Type: Ship (hazmat cat A). MMSI: 357331980.

Date/timePositionNaut miles runAvg speedWind from/ knotsBaromVisibWave heightAir tempDewpointWater temp
2016-May-03 00:33N 37°38' W 008°59'8 7.8
2016-May-02 23:33N 37°31' W 009°04'8 7.6
2016-May-02 22:33N 37°24' W 009°07'8 7.5
2016-May-02 21:33N 37°17' W 009°11'7 7.2
2016-May-02 20:33N 37°11' W 009°15'7 6.7
2016-May-02 19:33N 37°05' W 009°18'6 5.9
2016-May-02 18:33N 36°59' W 009°21'4 4.2
2016-May-02 17:33N 36°55' W 009°20'6 5.6
2016-May-02 16:33N 36°50' W 009°16'18814.4
2016-May-02 03:33N 35°59' W 005°32'1313.4
2016-May-02 02:33N 36°02' W 005°16'21515.2
2016-May-01 12:23N 37°01' W 000°58'1214.8
2016-May-01 11:33N 37°08' W 000°45'1915.5
2016-May-01 10:21N 37°18' W 000°25'1315.3
2016-May-01 09:31N 37°24' W 000°12'13915.4
2016-May-01 00:28N 38°36' E 002°19'1516.1
2016-Apr-30 23:33N 38°44' E 002°35'1515.5
2016-Apr-30 22:33N 38°52' E 002°52'1515.2
2016-Apr-30 21:33N 39°00' E 003°09'1615.7
2016-Apr-30 20:33N 39°09' E 003°26'1615.9
2016-Apr-30 19:31N 39°17' E 003°44'33215.9
2016-Apr-29 22:33N 43°02' E 009°09'1716.9
2016-Apr-29 21:33N 43°14' E 009°25'1616.4
2016-Apr-29 20:33N 43°26' E 009°42'1515.0
2016-Apr-29 19:33N 43°30' E 010°02'1212.0
2016-Apr-29 18:33N 43°33' E 010°18'1 1.4
2016-Apr-29 17:32N 43°35' E 010°18'0 0.0
2016-Apr-29 16:32N 43°35' E 010°18'0 0.0
2016-Apr-29 15:32N 43°35' E 010°18'0 0.0
2016-Apr-29 14:32N 43°35' E 010°18'0 0.0
2016-Apr-29 13:32N 43°35' E 010°18'0 0.0
2016-Apr-29 12:32N 43°35' E 010°18'0 0.0
2016-Apr-29 11:32N 43°35' E 010°18'0 0.0
2016-Apr-29 10:32N 43°35' E 010°18'0 0.0
2016-Apr-29 09:32N 43°35' E 010°18'0 0.0
2016-Apr-29 08:32N 43°35' E 010°18'0 0.0
2016-Apr-29 07:32N 43°35' E 010°18'0 0.0
2016-Apr-29 06:32N 43°35' E 010°18'0 0.0
2016-Apr-29 05:32N 43°35' E 010°18'0 0.0
2016-Apr-29 04:32N 43°35' E 010°18'3 3.4
2016-Apr-29 03:33N 43°32' E 010°16'3 3.3
2016-Apr-29 02:33N 43°30' E 010°12'1615.7
2016-Apr-29 01:33N 43°31' E 009°51'1615.9
2016-Apr-29 00:33N 43°42' E 009°34'1616.4
2016-Apr-28 23:33N 43°54' E 009°18'1616.0
2016-Apr-28 22:33N 44°05' E 009°03'1616.2
2016-Apr-28 21:33N 44°17' E 008°47'8 8.3
2016-Apr-28 20:33N 44°25' E 008°47'0 0.0
2016-Apr-28 19:27N 44°25' E 008°47'0 0.0
2016-Apr-28 18:33N 44°25' E 008°47'0 0.0
2016-Apr-28 17:33N 44°25' E 008°47'0 0.0
2016-Apr-28 16:33N 44°25' E 008°47'0 0.0
2016-Apr-28 15:33N 44°25' E 008°47'0 0.0
2016-Apr-28 14:33N 44°25' E 008°47'0 0.0
2016-Apr-28 13:30N 44°25' E 008°47'0 0.0
2016-Apr-28 12:33N 44°25' E 008°47'0 0.0
2016-Apr-28 11:33N 44°25' E 008°47'0 0.0
2016-Apr-28 10:33N 44°25' E 008°47'0 0.0
2016-Apr-28 09:33N 44°25' E 008°47'5 4.5
2016-Apr-28 08:33N 44°22' E 008°43'1717.2
2016-Apr-28 07:34N 44°06' E 008°53'1817.8
2016-Apr-28 06:34N 43°50' E 009°03'1817.6
2016-Apr-28 05:33N 43°34' E 009°14'1717.3
2016-Apr-28 04:33N 43°19' E 009°25'1716.9
2016-Apr-28 03:33N 43°04' E 009°34'3617.9
2016-Apr-28 01:33N 42°30' E 009°51'3717.4
2016-Apr-27 23:27N 42°01' E 010°21'30217.9
2016-Apr-27 06:33N 38°47' E 015°25'1817.7
2016-Apr-27 05:33N 38°35' E 015°41'1312.7
2016-Apr-27 04:33N 38°27' E 015°54'0 0.1
2016-Apr-27 03:22N 38°27' E 015°54'0 0.0
2016-Apr-27 02:31N 38°27' E 015°54'0 0.0
2016-Apr-27 01:31N 38°27' E 015°54'0 0.0
2016-Apr-27 00:21N 38°27' E 015°54'0 0.0
2016-Apr-26 23:31N 38°27' E 015°54'0 0.0
2016-Apr-26 22:31N 38°27' E 015°54'0 0.0
2016-Apr-26 21:31N 38°27' E 015°54'0 0.0
2016-Apr-26 20:30N 38°27' E 015°54'0 0.0
2016-Apr-26 19:30N 38°27' E 015°54'0 0.0
2016-Apr-26 18:31N 38°27' E 015°54'0 0.0
2016-Apr-26 17:31N 38°27' E 015°54'0 0.0
2016-Apr-26 16:31N 38°27' E 015°54'0 0.0
2016-Apr-26 15:30N 38°27' E 015°54'0 0.0
2016-Apr-26 14:28N 38°27' E 015°54'0 0.0
2016-Apr-26 13:34N 38°27' E 015°54'0 0.0
2016-Apr-26 12:33N 38°27' E 015°54'0 0.0
2016-Apr-26 11:33N 38°27' E 015°54'0 0.0
2016-Apr-26 10:33N 38°27' E 015°54'0 0.0
2016-Apr-26 09:33N 38°27' E 015°54'0 0.0
2016-Apr-26 08:33N 38°27' E 015°54'0 0.0
2016-Apr-26 07:33N 38°27' E 015°54'0 0.0
2016-Apr-26 06:33N 38°27' E 015°54'1 0.8
2016-Apr-26 05:33N 38°27' E 015°53'2 2.2
2016-Apr-26 04:33N 38°27' E 015°50'3 3.2
2016-Apr-26 03:33N 38°26' E 015°46'9 9.3
2016-Apr-26 02:33N 38°24' E 015°35'1919.0
2016-Apr-26 01:33N 38°19' E 015°12'1918.8
2016-Apr-26 00:32N 38°17' E 014°47'4218.7
2016-Apr-25 22:16N 38°19' E 013°53'1318.4
2016-Apr-25 21:33N 38°20' E 013°37'1818.2
2016-Apr-25 20:34N 38°21' E 013°14'1818.4
2016-Apr-25 19:34N 38°22' E 012°50'2318.3
2016-Apr-25 18:19N 38°24' E 012°21'85219.0
2016-Apr-23 21:24N 35°60' W 005°13'  
Track history (hours):
 
Tides and Currents Weather Stations Pressure Air Temp Water Temp Dewpoint Dewpoint Depression Visibility Wind Speed Wind Dir Waves Ship Positions

MSC Regina

Last reported at 2016-May-03 00:33 UTC. Time now 2016-May-03 01:10 UTC.
Position N 37°38' W 008°59'.

Length 259 m; draft 10.3 m.

Type: Ship (hazmat cat A). MMSI: 357331980.

Date/timePositionNaut miles runAvg speedWind from/ knotsBaromVisibWave heightAir tempDewpointWater temp
2016-May-03 00:33N 37°38' W 008°59'8 7.8
2016-May-02 23:33N 37°31' W 009°04'8 7.6
2016-May-02 22:33N 37°24' W 009°07'8 7.5
2016-May-02 21:33N 37°17' W 009°11'7 7.2
2016-May-02 20:33N 37°11' W 009°15'7 6.7
2016-May-02 19:33N 37°05' W 009°18'6 5.9
2016-May-02 18:33N 36°59' W 009°21'4 4.2
2016-May-02 17:33N 36°55' W 009°20'6 5.6
2016-May-02 16:33N 36°50' W 009°16'18814.4
2016-May-02 03:33N 35°59' W 005°32'1313.4
2016-May-02 02:33N 36°02' W 005°16'21515.2
2016-May-01 12:23N 37°01' W 000°58'1214.8
2016-May-01 11:33N 37°08' W 000°45'1915.5
2016-May-01 10:21N 37°18' W 000°25'1315.3
2016-May-01 09:31N 37°24' W 000°12'13915.4
2016-May-01 00:28N 38°36' E 002°19'1516.1
2016-Apr-30 23:33N 38°44' E 002°35'1515.5
2016-Apr-30 22:33N 38°52' E 002°52'1515.2
2016-Apr-30 21:33N 39°00' E 003°09'1615.7
2016-Apr-30 20:33N 39°09' E 003°26'1615.9
2016-Apr-30 19:31N 39°17' E 003°44'33215.9
2016-Apr-29 22:33N 43°02' E 009°09'1716.9
2016-Apr-29 21:33N 43°14' E 009°25'1616.4
2016-Apr-29 20:33N 43°26' E 009°42'1515.0
2016-Apr-29 19:33N 43°30' E 010°02'1212.0
2016-Apr-29 18:33N 43°33' E 010°18'1 1.4
2016-Apr-29 17:32N 43°35' E 010°18'0 0.0
2016-Apr-29 16:32N 43°35' E 010°18'0 0.0
2016-Apr-29 15:32N 43°35' E 010°18'0 0.0
2016-Apr-29 14:32N 43°35' E 010°18'0 0.0
2016-Apr-29 13:32N 43°35' E 010°18'0 0.0
2016-Apr-29 12:32N 43°35' E 010°18'0 0.0
2016-Apr-29 11:32N 43°35' E 010°18'0 0.0
2016-Apr-29 10:32N 43°35' E 010°18'0 0.0
2016-Apr-29 09:32N 43°35' E 010°18'0 0.0
2016-Apr-29 08:32N 43°35' E 010°18'0 0.0
2016-Apr-29 07:32N 43°35' E 010°18'0 0.0
2016-Apr-29 06:32N 43°35' E 010°18'0 0.0
2016-Apr-29 05:32N 43°35' E 010°18'0 0.0
2016-Apr-29 04:32N 43°35' E 010°18'3 3.4
2016-Apr-29 03:33N 43°32' E 010°16'3 3.3
2016-Apr-29 02:33N 43°30' E 010°12'1615.7
2016-Apr-29 01:33N 43°31' E 009°51'1615.9
2016-Apr-29 00:33N 43°42' E 009°34'1616.4
2016-Apr-28 23:33N 43°54' E 009°18'1616.0
2016-Apr-28 22:33N 44°05' E 009°03'1616.2
2016-Apr-28 21:33N 44°17' E 008°47'8 8.3
2016-Apr-28 20:33N 44°25' E 008°47'0 0.0
2016-Apr-28 19:27N 44°25' E 008°47'0 0.0
2016-Apr-28 18:33N 44°25' E 008°47'0 0.0
2016-Apr-28 17:33N 44°25' E 008°47'0 0.0
2016-Apr-28 16:33N 44°25' E 008°47'0 0.0
2016-Apr-28 15:33N 44°25' E 008°47'0 0.0
2016-Apr-28 14:33N 44°25' E 008°47'0 0.0
2016-Apr-28 13:30N 44°25' E 008°47'0 0.0
2016-Apr-28 12:33N 44°25' E 008°47'0 0.0
2016-Apr-28 11:33N 44°25' E 008°47'0 0.0
2016-Apr-28 10:33N 44°25' E 008°47'0 0.0
2016-Apr-28 09:33N 44°25' E 008°47'5 4.5
2016-Apr-28 08:33N 44°22' E 008°43'1717.2
2016-Apr-28 07:34N 44°06' E 008°53'1817.8
2016-Apr-28 06:34N 43°50' E 009°03'1817.6
2016-Apr-28 05:33N 43°34' E 009°14'1717.3
2016-Apr-28 04:33N 43°19' E 009°25'1716.9
2016-Apr-28 03:33N 43°04' E 009°34'3617.9
2016-Apr-28 01:33N 42°30' E 009°51'3717.4
2016-Apr-27 23:27N 42°01' E 010°21'30217.9
2016-Apr-27 06:33N 38°47' E 015°25'1817.7
2016-Apr-27 05:33N 38°35' E 015°41'1312.7
2016-Apr-27 04:33N 38°27' E 015°54'0 0.1
2016-Apr-27 03:22N 38°27' E 015°54'0 0.0
2016-Apr-27 02:31N 38°27' E 015°54'0 0.0
2016-Apr-27 01:31N 38°27' E 015°54'0 0.0
2016-Apr-27 00:21N 38°27' E 015°54'0 0.0
2016-Apr-26 23:31N 38°27' E 015°54'0 0.0
2016-Apr-26 22:31N 38°27' E 015°54'0 0.0
2016-Apr-26 21:31N 38°27' E 015°54'0 0.0
2016-Apr-26 20:30N 38°27' E 015°54'0 0.0
2016-Apr-26 19:30N 38°27' E 015°54'0 0.0
2016-Apr-26 18:31N 38°27' E 015°54'0 0.0
2016-Apr-26 17:31N 38°27' E 015°54'0 0.0
2016-Apr-26 16:31N 38°27' E 015°54'0 0.0
2016-Apr-26 15:30N 38°27' E 015°54'0 0.0
2016-Apr-26 14:28N 38°27' E 015°54'0 0.0
2016-Apr-26 13:34N 38°27' E 015°54'0 0.0
2016-Apr-26 12:33N 38°27' E 015°54'0 0.0
2016-Apr-26 11:33N 38°27' E 015°54'0 0.0
2016-Apr-26 10:33N 38°27' E 015°54'0 0.0
2016-Apr-26 09:33N 38°27' E 015°54'0 0.0
2016-Apr-26 08:33N 38°27' E 015°54'0 0.0
2016-Apr-26 07:33N 38°27' E 015°54'0 0.0
2016-Apr-26 06:33N 38°27' E 015°54'1 0.8
2016-Apr-26 05:33N 38°27' E 015°53'2 2.2
2016-Apr-26 04:33N 38°27' E 015°50'3 3.2
2016-Apr-26 03:33N 38°26' E 015°46'9 9.3
2016-Apr-26 02:33N 38°24' E 015°35'1919.0
2016-Apr-26 01:33N 38°19' E 015°12'1918.8
2016-Apr-26 00:32N 38°17' E 014°47'4218.7
2016-Apr-25 22:16N 38°19' E 013°53'1318.4
2016-Apr-25 21:33N 38°20' E 013°37'1818.2
2016-Apr-25 20:34N 38°21' E 013°14'1818.4
2016-Apr-25 19:34N 38°22' E 012°50'2318.3
2016-Apr-25 18:19N 38°24' E 012°21'85219.0
2016-Apr-23 21:24N 35°60' W 005°13'  

Dump ship's entire track history